createdAt,value
2023-02-04T00:00:03.521Z,50.866661
2023-02-04T00:01:16.520Z,50.866676
2023-02-04T00:01:59.536Z,50.866837
2023-02-04T00:03:01.081Z,50.866688
2023-02-04T00:03:59.541Z,50.866730
2023-02-04T00:04:57.128Z,50.866749
2023-02-04T00:05:56.066Z,50.866833
2023-02-04T00:06:56.012Z,50.866783
2023-02-04T00:07:57.630Z,50.866802
2023-02-04T00:08:55.989Z,50.866756
2023-02-04T00:09:55.972Z,50.866684
2023-02-04T00:10:57.623Z,50.866634
2023-02-04T00:11:55.982Z,50.866695
2023-02-04T00:12:55.951Z,50.866631
2023-02-04T00:13:55.958Z,50.866859
2023-02-04T00:14:56.534Z,50.866741
2023-02-04T00:15:55.973Z,50.866703
2023-02-04T00:16:57.531Z,50.866760
2023-02-04T00:17:55.918Z,50.867004
2023-02-04T00:18:55.910Z,50.866821
2023-02-04T00:19:55.901Z,50.866528
2023-02-04T00:20:55.889Z,50.866863
2023-02-04T00:21:55.876Z,50.866714
2023-02-04T00:22:55.872Z,50.866745
2023-02-04T00:23:56.621Z,50.866863
2023-02-04T01:07:49.443Z,50.866760
2023-02-04T01:08:49.445Z,50.866692
2023-02-04T01:09:51.339Z,50.866714
2023-02-04T01:10:49.412Z,50.866684
2023-02-04T01:11:49.410Z,50.866714
2023-02-04T01:12:49.401Z,50.866718
2023-02-04T01:13:49.379Z,50.866676
2023-02-04T01:14:49.395Z,50.866714
2023-02-04T01:15:50.256Z,50.866692
2023-02-04T01:16:50.412Z,50.866703
2023-02-04T01:17:49.362Z,50.866665
2023-02-04T01:18:49.339Z,50.866680
2023-02-04T01:19:49.348Z,50.866699
2023-02-04T01:20:49.329Z,50.866669
2023-02-04T01:21:49.322Z,50.866680
2023-02-04T01:22:49.344Z,50.866642
2023-02-04T01:23:49.304Z,50.866653
2023-02-04T01:24:49.301Z,50.866600
2023-02-04T01:25:49.303Z,50.866653
2023-02-04T01:26:49.288Z,50.866695
2023-02-04T01:27:49.354Z,50.866722
2023-02-04T01:28:49.266Z,50.866680
2023-02-04T01:29:49.276Z,50.866688
2023-02-04T01:30:49.358Z,50.866676
2023-02-04T01:31:49.274Z,50.866673
2023-02-04T01:32:49.342Z,50.866684
2023-02-04T01:33:49.852Z,50.866737
2023-02-04T01:34:49.251Z,50.866669
2023-02-04T01:35:49.215Z,50.866673
2023-02-04T01:36:49.212Z,50.866631
2023-02-04T01:37:49.209Z,50.866558
2023-02-04T01:38:49.196Z,50.866592
2023-02-04T01:39:49.194Z,50.866558
2023-02-04T01:40:50.185Z,50.866589
2023-02-04T01:41:49.181Z,50.866501
2023-02-04T01:42:49.166Z,50.866596
2023-02-04T01:43:49.181Z,50.866459
2023-02-04T01:44:49.141Z,50.866535
2023-02-04T01:45:49.183Z,50.866577
2023-02-04T01:46:49.132Z,50.866653
2023-02-04T01:47:49.127Z,50.866581
2023-02-04T01:48:49.113Z,50.866669
2023-02-04T01:49:49.112Z,50.866482
2023-02-04T01:50:49.758Z,50.866711
2023-02-04T01:51:49.098Z,50.866772
2023-02-04T01:52:50.076Z,50.866825
2023-02-04T01:53:49.067Z,50.866768
2023-02-04T01:54:49.056Z,50.866817
2023-02-04T01:55:49.052Z,50.866817
2023-02-04T01:56:49.066Z,50.866810
2023-02-04T01:57:49.182Z,50.866791
2023-02-04T01:58:49.022Z,50.866749
2023-02-04T01:59:49.008Z,50.866638
2023-02-04T02:00:49.041Z,50.866695
2023-02-04T02:01:49.013Z,50.866730
2023-02-04T02:02:48.993Z,50.866680
2023-02-04T02:03:48.998Z,50.866749
2023-02-04T02:04:48.979Z,50.866795
2023-02-04T02:05:48.966Z,50.866703
2023-02-04T02:06:49.831Z,50.866753
2023-02-04T02:07:49.957Z,50.866764
2023-02-04T02:08:49.754Z,50.866829
2023-02-04T02:09:48.941Z,50.866753
2023-02-04T02:10:48.925Z,50.866764
2023-02-04T02:11:48.920Z,50.866768
2023-02-04T02:12:52.874Z,50.866844
2023-02-04T02:13:48.913Z,50.866741
2023-02-04T02:14:50.761Z,50.866787
2023-02-04T02:15:48.895Z,50.867004
2023-02-04T02:16:49.094Z,50.866951
2023-02-04T02:17:48.869Z,50.866840
2023-02-04T02:18:48.861Z,50.866631
2023-02-04T02:19:48.862Z,50.866707
2023-02-04T02:20:48.854Z,50.866760
2023-02-04T02:21:49.798Z,50.866779
2023-02-04T02:22:49.765Z,50.866856
2023-02-04T02:23:48.842Z,50.866936
2023-02-04T02:24:48.839Z,50.866920
2023-02-04T02:25:49.089Z,50.866753
2023-02-04T02:26:48.804Z,50.866726
2023-02-04T02:27:48.865Z,50.866776
2023-02-04T02:28:49.770Z,50.866699
2023-02-04T02:29:49.776Z,50.866653
2023-02-04T02:30:48.851Z,50.866631
2023-02-04T02:31:48.866Z,50.866261
2023-02-04T02:32:48.770Z,50.866158
2023-02-04T02:33:48.744Z,50.866337
2023-02-04T02:34:48.757Z,50.866379
2023-02-04T02:35:48.722Z,50.866524
2023-02-04T02:36:48.728Z,50.866520
2023-02-04T02:37:48.724Z,50.866627
2023-02-04T02:38:48.693Z,50.866554
2023-02-04T02:39:48.709Z,50.866764
2023-02-04T02:40:48.680Z,50.866959
2023-02-04T02:41:48.680Z,50.867012
2023-02-04T02:42:48.664Z,50.866985
2023-02-04T02:43:48.661Z,50.866829
2023-02-04T02:44:48.672Z,50.866875
2023-02-04T02:45:48.657Z,50.866623
2023-02-04T02:46:48.626Z,50.866684
2023-02-04T02:47:48.637Z,50.866852
2023-02-04T02:48:48.613Z,50.866844
2023-02-04T02:49:48.616Z,50.866810
2023-02-04T02:50:48.596Z,50.866859
2023-02-04T02:51:48.624Z,50.866760
2023-02-04T02:52:48.588Z,50.866726
2023-02-04T02:53:48.565Z,50.866634
2023-02-04T02:54:49.383Z,50.866608
2023-02-04T02:55:48.555Z,50.866547
2023-02-04T02:56:48.588Z,50.866596
2023-02-04T02:57:48.543Z,50.866535
2023-02-04T02:58:48.538Z,50.866638
2023-02-04T02:59:48.526Z,50.866764
2023-02-04T03:00:48.513Z,50.866673
2023-02-04T03:01:48.513Z,50.866642
2023-02-04T03:02:48.540Z,50.866604
2023-02-04T03:03:48.496Z,50.866653
2023-02-04T03:04:48.477Z,50.866615
2023-02-04T03:05:48.486Z,50.866661
2023-02-04T03:06:48.465Z,50.866615
2023-02-04T03:07:50.330Z,50.866634
2023-02-04T03:08:49.276Z,50.866653
2023-02-04T03:09:48.486Z,50.866646
2023-02-04T03:10:48.463Z,50.866665
2023-02-04T03:11:48.445Z,50.866631
2023-02-04T03:12:48.423Z,50.866646
2023-02-04T03:13:48.431Z,50.866665
2023-02-04T03:14:48.407Z,50.866661
2023-02-04T03:15:48.414Z,50.866669
2023-02-04T03:16:48.392Z,50.866711
2023-02-04T03:27:56.037Z,50.866508
2023-02-04T03:28:55.987Z,50.866577
2023-02-04T03:29:55.962Z,50.866573
2023-02-04T03:30:56.248Z,50.866661
2023-02-04T03:31:56.074Z,50.866703
2023-02-04T03:32:56.213Z,50.866741
2023-02-04T03:33:55.937Z,50.866734
2023-02-04T03:34:55.917Z,50.866699
2023-02-04T03:35:55.922Z,50.866699
2023-02-04T03:36:56.606Z,50.866695
2023-02-04T03:37:55.914Z,50.866692
2023-02-04T03:38:55.898Z,50.866695
2023-02-04T03:39:55.900Z,50.866676
2023-02-04T03:40:55.893Z,50.866661
2023-02-04T03:41:55.865Z,50.866669
2023-02-04T03:42:55.870Z,50.866673
2023-02-04T03:43:55.862Z,50.866684
2023-02-04T03:44:55.845Z,50.866650
2023-02-04T03:45:55.855Z,50.866627
2023-02-04T03:46:55.826Z,50.866638
2023-02-04T03:47:55.820Z,50.866650
2023-02-04T03:48:55.827Z,50.866657
2023-02-04T03:49:55.821Z,50.866646
2023-02-04T03:50:55.800Z,50.866638
2023-02-04T03:51:55.786Z,50.866634
2023-02-04T03:52:55.773Z,50.866619
2023-02-04T03:53:55.828Z,50.866650
2023-02-04T03:54:55.776Z,50.866657
2023-02-04T03:55:55.754Z,50.866688
2023-02-04T03:56:56.678Z,50.866676
2023-02-04T03:57:56.617Z,50.866623
2023-02-04T03:58:58.715Z,50.866596
2023-02-04T03:59:55.734Z,50.866585
2023-02-04T04:00:55.737Z,50.866611
2023-02-04T04:01:55.764Z,50.866631
2023-02-04T04:02:55.874Z,50.866653
2023-02-04T04:03:55.695Z,50.866623
2023-02-04T04:04:55.693Z,50.866669
2023-02-04T04:05:56.616Z,50.866661
2023-02-04T04:06:55.675Z,50.866684
2023-02-04T04:07:55.664Z,50.866634
2023-02-04T04:08:55.650Z,50.866642
2023-02-04T04:09:55.671Z,50.866657
2023-02-04T04:10:55.629Z,50.866699
2023-02-04T04:11:55.627Z,50.866722
2023-02-04T04:12:55.615Z,50.866680
2023-02-04T04:13:55.600Z,50.866676
2023-02-04T04:14:56.218Z,50.866741
2023-02-04T04:15:55.596Z,50.866692
2023-02-04T04:16:55.598Z,50.866673
2023-02-04T04:17:55.574Z,50.866718
2023-02-04T04:18:55.577Z,50.866764
2023-02-04T04:19:55.570Z,50.866688
2023-02-04T04:20:55.611Z,50.866756
2023-02-04T04:21:55.566Z,50.866703
2023-02-04T04:22:55.550Z,50.866650
2023-02-04T04:23:55.555Z,50.866646
2023-02-04T04:24:55.549Z,50.866627
2023-02-04T04:25:55.511Z,50.866623
2023-02-04T04:26:55.509Z,50.866608
2023-02-04T04:27:55.530Z,50.866592
2023-02-04T04:28:55.492Z,50.866543
2023-02-04T04:29:55.493Z,50.866539
2023-02-04T04:30:55.544Z,50.866589
2023-02-04T04:31:55.518Z,50.866482
2023-02-04T04:32:55.457Z,50.866482
2023-02-04T04:33:55.449Z,50.866428
2023-02-04T04:34:55.456Z,50.866459
2023-02-04T04:35:55.440Z,50.866413
2023-02-04T04:36:55.449Z,50.866524
2023-02-04T04:37:55.427Z,50.866497
2023-02-04T04:38:55.409Z,50.866520
2023-02-04T04:39:56.419Z,50.866497
2023-02-04T04:40:55.460Z,50.866272
2023-02-04T04:41:55.426Z,50.866337
2023-02-04T04:42:55.381Z,50.866219
2023-02-04T04:43:55.387Z,50.866253
2023-02-04T04:44:55.374Z,50.866112
2023-02-04T04:45:55.376Z,50.866055
2023-02-04T04:46:55.389Z,50.865993
2023-02-04T04:47:55.348Z,50.866173
2023-02-04T04:48:55.335Z,50.866299
2023-02-04T04:49:56.113Z,50.866318
2023-02-04T04:50:55.319Z,50.866356
2023-02-04T04:51:55.320Z,50.866390
2023-02-04T04:52:55.304Z,50.866463
2023-02-04T04:53:55.292Z,50.866718
2023-02-04T04:54:55.300Z,50.866760
2023-02-04T04:55:55.283Z,50.866718
2023-02-04T04:56:55.290Z,50.866848
2023-02-04T04:57:55.266Z,50.867031
2023-02-04T04:58:56.265Z,50.867138
2023-02-04T04:59:55.245Z,50.867161
2023-02-04T05:00:58.258Z,50.867279
2023-02-04T05:01:55.239Z,50.867416
2023-02-04T05:02:55.224Z,50.867382
2023-02-04T05:03:55.219Z,50.867405
2023-02-04T05:04:55.295Z,50.867542
2023-02-04T05:05:55.199Z,50.867470
2023-02-04T05:06:55.214Z,50.867374
2023-02-04T05:07:55.182Z,50.867195
2023-02-04T05:08:55.177Z,50.867245
2023-02-04T05:09:55.183Z,50.867233
2023-02-04T05:10:55.166Z,50.867149
2023-02-04T05:11:55.154Z,50.867115
2023-02-04T05:12:55.145Z,50.867222
2023-02-04T05:13:55.124Z,50.867252
2023-02-04T05:14:56.135Z,50.867092
2023-02-04T05:15:55.689Z,50.867111
2023-02-04T05:16:55.163Z,50.867035
2023-02-04T05:17:55.110Z,50.867001
2023-02-04T05:18:55.117Z,50.867039
2023-02-04T05:19:55.114Z,50.867031
2023-02-04T05:20:55.093Z,50.867046
2023-02-04T05:21:55.084Z,50.866997
2023-02-04T05:22:55.709Z,50.867004
2023-02-04T05:23:56.715Z,50.867016
2023-02-04T05:24:55.077Z,50.867012
2023-02-04T05:25:55.067Z,50.866970
2023-02-04T05:26:55.038Z,50.866936
2023-02-04T05:27:56.072Z,50.866943
2023-02-04T05:28:55.025Z,50.866940
2023-02-04T05:29:55.026Z,50.866943
2023-02-04T05:30:55.055Z,50.866959
2023-02-04T05:31:55.074Z,50.866989
2023-02-04T05:32:55.027Z,50.866982
2023-02-04T05:33:55.005Z,50.866970
2023-02-04T05:34:55.632Z,50.866970
2023-02-04T05:35:54.972Z,50.866940
2023-02-04T05:36:54.970Z,50.866909
2023-02-04T05:37:58.653Z,50.866871
2023-02-04T05:38:56.144Z,50.866875
2023-02-04T05:39:54.946Z,50.866909
2023-02-04T05:40:55.630Z,50.866901
2023-02-04T05:41:56.646Z,50.866913
2023-02-04T05:42:54.915Z,50.866932
2023-02-04T05:43:55.725Z,50.866940
2023-02-04T05:44:54.912Z,50.866928
2023-02-04T05:45:54.957Z,50.866913
2023-02-04T05:46:54.904Z,50.866879
2023-02-04T05:47:55.626Z,50.866886
2023-02-04T05:48:56.645Z,50.866905
2023-02-04T05:49:54.864Z,50.866882
2023-02-04T05:50:54.855Z,50.866879
2023-02-04T05:51:54.853Z,50.866909
2023-02-04T05:52:54.838Z,50.866886
2023-02-04T05:53:55.723Z,50.866875
2023-02-04T05:54:55.627Z,50.866867
2023-02-04T05:55:54.818Z,50.866875
2023-02-04T05:56:54.803Z,50.866879
2023-02-04T05:57:54.803Z,50.866871
2023-02-04T05:58:54.806Z,50.866909
2023-02-04T05:59:54.790Z,50.866886
2023-02-04T06:00:54.770Z,50.866806
2023-02-04T06:01:54.760Z,50.866802
2023-02-04T06:02:54.788Z,50.866798
2023-02-04T06:03:54.784Z,50.866821
2023-02-04T06:04:55.637Z,50.866802
2023-02-04T06:05:54.743Z,50.866817
2023-02-04T06:06:54.711Z,50.866821
2023-02-04T06:07:54.711Z,50.866798
2023-02-04T06:08:54.767Z,50.866753
2023-02-04T06:09:54.704Z,50.866760
2023-02-04T06:10:54.684Z,50.866821
2023-02-04T06:11:54.696Z,50.866806
2023-02-04T06:12:54.695Z,50.866814
2023-02-04T06:13:54.671Z,50.866791
2023-02-04T06:14:54.673Z,50.866795
2023-02-04T06:15:54.651Z,50.866795
2023-02-04T06:16:54.699Z,50.866772
2023-02-04T06:17:54.640Z,50.866753
2023-02-04T06:18:55.142Z,50.866791
2023-02-04T06:19:55.228Z,50.866772
2023-02-04T06:20:54.616Z,50.866764
2023-02-04T06:21:54.601Z,50.866806
2023-02-04T06:22:54.599Z,50.866833
2023-02-04T06:23:54.618Z,50.866798
2023-02-04T06:24:54.578Z,50.866814
2023-02-04T06:25:54.568Z,50.866825
2023-02-04T06:26:54.595Z,50.866856
2023-02-04T06:27:54.595Z,50.866859
2023-02-04T06:28:56.211Z,50.866859
2023-02-04T06:29:55.134Z,50.866867
2023-02-04T06:30:54.604Z,50.866852
2023-02-04T06:31:56.291Z,50.866859
2023-02-04T06:32:54.541Z,50.866829
2023-02-04T06:33:54.527Z,50.866779
2023-02-04T06:34:54.505Z,50.866802
2023-02-04T06:35:54.481Z,50.866772
2023-02-04T06:36:54.487Z,50.866726
2023-02-04T06:37:54.468Z,50.866791
2023-02-04T06:38:54.517Z,50.866798
2023-02-04T06:39:54.474Z,50.866798
2023-02-04T06:40:55.149Z,50.866840
2023-02-04T06:41:56.220Z,50.866718
2023-02-04T06:42:54.450Z,50.866737
2023-02-04T06:43:54.454Z,50.866734
2023-02-04T06:44:54.485Z,50.866753
2023-02-04T06:45:54.449Z,50.866730
2023-02-04T06:46:54.400Z,50.866787
2023-02-04T06:47:55.213Z,50.866783
2023-02-04T06:48:54.399Z,50.866760
2023-02-04T06:49:54.418Z,50.866772
2023-02-04T06:50:55.142Z,50.866787
2023-02-04T06:51:54.366Z,50.866772
2023-02-04T06:52:54.361Z,50.866814
2023-02-04T06:53:54.367Z,50.866772
2023-02-04T06:54:55.140Z,50.866795
2023-02-04T06:55:54.342Z,50.866772
2023-02-04T06:56:55.145Z,50.866760
2023-02-04T06:57:54.328Z,50.866791
2023-02-04T06:58:55.299Z,50.866772
2023-02-04T06:59:54.295Z,50.866776
2023-02-04T07:00:54.297Z,50.866806
2023-02-04T07:01:54.280Z,50.866753
2023-02-04T07:02:54.363Z,50.866764
2023-02-04T07:03:54.313Z,50.866714
2023-02-04T07:04:54.252Z,50.866726
2023-02-04T07:05:54.265Z,50.866779
2023-02-04T07:06:54.300Z,50.866783
2023-02-04T07:07:56.135Z,50.866692
2023-02-04T07:08:54.235Z,50.866737
2023-02-04T07:09:54.218Z,50.866760
2023-02-04T07:10:55.209Z,50.866726
2023-02-04T07:11:54.254Z,50.866844
2023-02-04T07:12:54.218Z,50.866943
2023-02-04T07:13:54.201Z,50.866886
2023-02-04T07:14:55.178Z,50.866810
2023-02-04T07:15:54.285Z,50.866837
2023-02-04T07:16:54.185Z,50.866856
2023-02-04T07:17:54.159Z,50.866814
2023-02-04T07:18:54.152Z,50.866821
2023-02-04T07:19:54.750Z,50.866863
2023-02-04T07:20:54.150Z,50.866840
2023-02-04T07:21:54.133Z,50.866951
2023-02-04T07:22:54.131Z,50.866947
2023-02-04T07:23:54.110Z,50.866917
2023-02-04T07:24:54.141Z,50.866920
2023-02-04T07:25:55.687Z,50.867027
2023-02-04T07:26:54.089Z,50.866920
2023-02-04T07:27:54.108Z,50.866779
2023-02-04T07:28:54.092Z,50.866879
2023-02-04T07:29:54.093Z,50.866829
2023-02-04T07:30:54.107Z,50.866886
2023-02-04T07:31:54.205Z,50.866856
2023-02-04T07:32:54.726Z,50.867012
2023-02-04T07:33:54.047Z,50.866898
2023-02-04T07:34:54.739Z,50.866901
2023-02-04T07:35:55.651Z,50.866795
2023-02-04T07:36:54.134Z,50.866817
2023-02-04T07:37:54.000Z,50.866798
2023-02-04T07:38:55.646Z,50.866776
2023-02-04T07:39:53.987Z,50.866737
2023-02-04T07:40:54.012Z,50.866840
2023-02-04T07:41:53.982Z,50.866928
2023-02-04T07:42:53.972Z,50.866932
2023-02-04T07:43:53.957Z,50.866959
2023-02-04T07:44:54.718Z,50.867058
2023-02-04T07:45:53.979Z,50.866989
2023-02-04T07:46:53.953Z,50.866894
2023-02-04T07:47:53.924Z,50.866909
2023-02-04T07:48:55.710Z,50.866848
2023-02-04T07:49:53.905Z,50.866913
2023-02-04T07:50:53.914Z,50.866802
2023-02-04T07:51:53.898Z,50.866646
2023-02-04T07:52:53.885Z,50.866936
2023-02-04T07:53:54.871Z,50.866867
2023-02-04T07:54:53.870Z,50.866756
2023-02-04T07:55:53.875Z,50.866802
2023-02-04T07:56:53.861Z,50.866718
2023-02-04T07:57:53.846Z,50.866684
2023-02-04T07:58:53.828Z,50.866703
2023-02-04T07:59:53.863Z,50.866718
2023-02-04T08:00:53.825Z,50.866730
2023-02-04T08:01:53.830Z,50.866718
2023-02-04T08:02:54.674Z,50.866749
2023-02-04T08:03:53.795Z,50.866749
2023-02-04T08:04:53.788Z,50.866783
2023-02-04T08:05:53.826Z,50.866657
2023-02-04T08:06:53.926Z,50.866711
2023-02-04T08:07:53.781Z,50.866695
2023-02-04T08:08:53.736Z,50.866730
2023-02-04T08:09:55.637Z,50.866749
2023-02-04T08:14:03.661Z,50.866764
2023-02-04T08:15:03.657Z,50.866718
2023-02-04T08:16:03.703Z,50.866760
2023-02-04T08:17:03.631Z,50.866779
2023-02-04T08:18:03.637Z,50.866821
2023-02-04T08:19:03.619Z,50.866833
2023-02-04T08:20:03.616Z,50.866810
2023-02-04T08:21:03.602Z,50.866779
2023-02-04T08:22:03.605Z,50.866848
2023-02-04T08:23:03.594Z,50.866817
2023-02-04T08:24:03.581Z,50.866772
2023-02-04T08:25:03.596Z,50.866779
2023-02-04T08:26:05.450Z,50.866791
2023-02-04T08:27:03.553Z,50.866779
2023-02-04T08:28:03.587Z,50.866837
2023-02-04T08:29:03.566Z,50.866825
2023-02-04T08:30:05.041Z,50.866856
2023-02-04T08:31:03.708Z,50.866802
2023-02-04T08:32:03.542Z,50.866718
2023-02-04T08:33:03.637Z,50.866749
2023-02-04T08:34:03.685Z,50.866741
2023-02-04T08:35:05.596Z,50.866749
2023-02-04T08:36:04.471Z,50.866783
2023-02-04T08:37:04.119Z,50.866825
2023-02-04T08:38:04.440Z,50.866787
2023-02-04T08:39:03.464Z,50.866791
2023-02-04T08:40:03.457Z,50.866791
2023-02-04T08:41:04.036Z,50.866791
2023-02-04T08:42:03.431Z,50.866783
2023-02-04T08:43:03.435Z,50.866730
2023-02-04T08:44:03.416Z,50.866749
2023-02-04T08:45:03.405Z,50.866776
2023-02-04T08:46:03.409Z,50.866753
2023-02-04T08:47:03.409Z,50.866779
2023-02-04T08:48:03.402Z,50.866749
2023-02-04T08:49:03.474Z,50.866814
2023-02-04T08:50:03.387Z,50.866718
2023-02-04T08:51:03.374Z,50.866798
2023-02-04T08:52:03.465Z,50.866814
2023-02-04T08:53:03.358Z,50.866791
2023-02-04T08:54:03.358Z,50.866726
2023-02-04T08:55:03.394Z,50.866764
2023-02-04T08:56:03.354Z,50.866764
2023-02-04T08:57:03.357Z,50.866756
2023-02-04T08:58:03.326Z,50.866753
2023-02-04T08:59:03.350Z,50.866749
2023-02-04T09:00:03.311Z,50.866745
2023-02-04T09:01:03.345Z,50.866772
2023-02-04T09:02:03.433Z,50.866795
2023-02-04T09:03:03.292Z,50.866791
2023-02-04T09:04:03.302Z,50.866779
2023-02-04T09:05:03.269Z,50.866787
2023-02-04T09:06:03.291Z,50.866837
2023-02-04T09:07:04.034Z,50.866844
2023-02-04T09:08:03.254Z,50.866829
2023-02-04T09:09:03.247Z,50.866817
2023-02-04T09:10:03.230Z,50.866798
2023-02-04T09:11:03.223Z,50.866833
2023-02-04T09:12:03.264Z,50.866840
2023-02-04T09:13:03.215Z,50.866806
2023-02-04T09:14:03.201Z,50.866848
2023-02-04T09:15:03.202Z,50.866817
2023-02-04T09:25:14.409Z,50.866730
2023-02-04T09:26:11.577Z,50.866726
2023-02-04T09:27:11.594Z,50.866714
2023-02-04T09:28:11.722Z,50.866695
2023-02-04T09:29:11.558Z,50.866703
2023-02-04T09:30:11.555Z,50.866741
2023-02-04T09:31:11.682Z,50.866703
2023-02-04T09:32:13.497Z,50.866695
2023-02-04T09:33:11.544Z,50.866707
2023-02-04T09:34:11.522Z,50.866722
2023-02-04T09:35:11.525Z,50.866714
2023-02-04T09:36:11.513Z,50.866734
2023-02-04T09:37:11.501Z,50.866749
2023-02-04T09:38:12.509Z,50.866753
2023-02-04T09:39:11.477Z,50.866734
2023-02-04T09:40:11.474Z,50.866749
2023-02-04T09:41:11.466Z,50.866753
2023-02-04T09:42:11.462Z,50.866745
2023-02-04T09:43:12.452Z,50.866726
2023-02-04T09:44:13.008Z,50.866745
2023-02-04T09:45:11.448Z,50.866749
2023-02-04T09:46:11.501Z,50.866745
2023-02-04T09:47:11.454Z,50.866798
2023-02-04T09:48:11.412Z,50.866734
2023-02-04T09:49:12.003Z,50.866753
2023-02-04T09:50:11.958Z,50.866753
2023-02-04T09:51:11.393Z,50.866741
2023-02-04T09:52:11.383Z,50.866772
2023-02-04T09:53:11.369Z,50.866756
2023-02-04T09:54:11.370Z,50.866764
2023-02-04T09:55:11.349Z,50.866753
2023-02-04T09:56:11.336Z,50.866726
2023-02-04T09:57:11.339Z,50.866737
2023-02-04T09:58:11.316Z,50.866756
2023-02-04T09:59:11.330Z,50.866745
2023-02-04T10:00:11.914Z,50.866768
2023-02-04T10:01:11.382Z,50.866768
2023-02-04T10:02:11.297Z,50.866737
2023-02-04T10:03:11.980Z,50.866772
2023-02-04T10:04:14.992Z,50.866772
2023-02-04T10:05:11.252Z,50.866795
2023-02-04T10:06:11.302Z,50.866776
2023-02-04T10:07:11.240Z,50.866753
2023-02-04T10:08:11.222Z,50.866741
2023-02-04T10:09:11.988Z,50.866749
2023-02-04T10:10:12.976Z,50.866737
2023-02-04T10:11:11.216Z,50.866741
2023-02-04T10:12:11.192Z,50.866718
2023-02-04T10:13:11.189Z,50.866753
2023-02-04T10:14:11.172Z,50.866764
2023-02-04T10:15:11.166Z,50.866734
2023-02-04T10:16:11.193Z,50.866734
2023-02-04T10:17:11.146Z,50.866741
2023-02-04T10:18:11.136Z,50.866726
2023-02-04T10:19:11.146Z,50.866741
2023-02-04T10:20:11.142Z,50.866760
2023-02-04T10:21:11.113Z,50.866756
2023-02-04T10:22:13.021Z,50.866768
2023-02-04T10:23:12.694Z,50.866737
2023-02-04T10:24:12.106Z,50.866688
2023-02-04T10:25:11.077Z,50.866726
2023-02-04T10:26:11.091Z,50.866722
2023-02-04T10:27:11.100Z,50.866703
2023-02-04T10:28:11.109Z,50.866745
2023-02-04T10:29:11.052Z,50.866772
2023-02-04T10:30:11.043Z,50.866795
2023-02-04T10:31:11.173Z,50.866745
2023-02-04T10:32:11.056Z,50.866791
2023-02-04T10:33:13.021Z,50.866798
2023-02-04T10:34:11.014Z,50.866699
2023-02-04T10:35:11.008Z,50.866756
2023-02-04T10:36:11.008Z,50.866776
2023-02-04T10:37:11.003Z,50.866734
2023-02-04T10:38:10.976Z,50.866726
2023-02-04T10:39:10.975Z,50.866730
2023-02-04T10:40:10.966Z,50.866791
2023-02-04T10:41:10.973Z,50.866791
2023-02-04T10:42:11.006Z,50.866787
2023-02-04T10:43:11.485Z,50.866772
2023-02-04T10:44:13.403Z,50.866791
2023-02-04T10:45:12.927Z,50.866802
2023-02-04T10:46:12.053Z,50.866814
2023-02-04T10:47:11.488Z,50.866776
2023-02-04T10:48:10.896Z,50.866745
2023-02-04T10:49:10.886Z,50.866779
2023-02-04T10:50:10.908Z,50.866806
2023-02-04T10:51:13.412Z,50.866814
2023-02-04T10:52:12.507Z,50.866741
2023-02-04T10:53:10.850Z,50.866764
2023-02-04T10:54:10.890Z,50.866795
2023-02-04T10:55:10.866Z,50.866798
2023-02-04T10:56:10.855Z,50.866756
2023-02-04T10:57:10.840Z,50.866734
2023-02-04T10:58:10.816Z,50.866795
2023-02-04T10:59:12.526Z,50.866787
2023-02-04T11:00:10.809Z,50.866776
2023-02-04T11:01:10.833Z,50.866776
2023-02-04T11:02:10.819Z,50.866760
2023-02-04T11:03:12.577Z,50.866768
2023-02-04T11:04:10.770Z,50.866760
2023-02-04T11:05:10.785Z,50.866768
2023-02-04T11:06:10.804Z,50.866756
2023-02-04T11:07:10.748Z,50.866776
2023-02-04T11:08:10.741Z,50.866768
2023-02-04T11:09:10.734Z,50.866737
2023-02-04T11:10:10.717Z,50.866741
2023-02-04T11:11:10.746Z,50.866711
2023-02-04T11:12:10.719Z,50.866623
2023-02-04T11:13:10.719Z,50.866528
2023-02-04T11:14:10.709Z,50.866405
2023-02-04T11:24:18.029Z,50.866436
2023-02-04T11:25:19.903Z,50.866550
2023-02-04T11:26:18.019Z,50.866619
2023-02-04T11:27:18.042Z,50.866608
2023-02-04T11:28:18.032Z,50.866688
2023-02-04T11:29:18.012Z,50.866703
2023-02-04T11:30:17.985Z,50.866535
2023-02-04T11:31:18.923Z,50.866444
2023-02-04T11:32:17.972Z,50.866642
2023-02-04T11:33:17.980Z,50.866627
2023-02-04T11:34:17.963Z,50.866776
2023-02-04T11:35:17.962Z,50.866714
2023-02-04T11:36:17.951Z,50.866844
2023-02-04T11:37:17.924Z,50.866699
2023-02-04T11:38:17.927Z,50.866638
2023-02-04T11:39:17.915Z,50.866692
2023-02-04T11:40:17.906Z,50.866650
2023-02-04T11:41:17.898Z,50.866718
2023-02-04T11:42:17.890Z,50.866730
2023-02-04T11:43:17.864Z,50.866726
2023-02-04T11:44:18.864Z,50.866707
2023-02-04T11:45:17.875Z,50.866718
2023-02-04T11:46:17.889Z,50.866703
2023-02-04T11:47:17.884Z,50.866730
2023-02-04T11:48:18.429Z,50.866722
2023-02-04T11:49:17.828Z,50.866737
2023-02-04T11:50:17.827Z,50.866703
2023-02-04T11:51:17.828Z,50.866692
2023-02-04T11:52:17.815Z,50.866699
2023-02-04T11:53:18.357Z,50.866726
2023-02-04T11:54:17.794Z,50.866692
2023-02-04T11:55:18.339Z,50.866680
2023-02-04T11:56:17.778Z,50.866669
2023-02-04T11:57:17.798Z,50.866699
2023-02-04T11:58:17.771Z,50.866688
2023-02-04T11:59:19.462Z,50.866676
2023-02-04T12:00:17.756Z,50.866791
2023-02-04T12:07:29.148Z,50.866795
2023-02-04T12:08:27.303Z,50.866810
2023-02-04T12:09:27.316Z,50.866806
2023-02-04T12:10:27.314Z,50.866848
2023-02-04T12:11:27.314Z,50.866730
2023-02-04T12:12:27.293Z,50.866695
2023-02-04T12:13:28.302Z,50.866749
2023-02-04T12:14:27.275Z,50.866623
2023-02-04T12:15:27.254Z,50.866611
2023-02-04T12:16:28.187Z,50.866787
2023-02-04T12:17:27.254Z,50.866779
2023-02-04T12:18:28.206Z,50.866753
2023-02-04T12:19:28.241Z,50.866779
2023-02-04T12:20:28.134Z,50.866730
2023-02-04T12:21:27.228Z,50.866772
2023-02-04T12:22:27.215Z,50.866753
2023-02-04T12:23:27.203Z,50.866772
2023-02-04T12:24:27.198Z,50.866768
2023-02-04T12:25:28.187Z,50.866779
2023-02-04T12:26:27.711Z,50.866745
2023-02-04T12:27:27.160Z,50.866711
2023-02-04T12:28:27.151Z,50.866692
2023-02-04T12:29:27.151Z,50.866688
2023-02-04T12:30:27.147Z,50.866703
2023-02-04T12:31:27.251Z,50.866730
2023-02-04T12:32:28.165Z,50.866741
2023-02-04T12:33:28.217Z,50.866756
2023-02-04T12:34:27.138Z,50.866749
2023-02-04T12:35:27.105Z,50.866711
2023-02-04T12:36:27.098Z,50.866798
2023-02-04T12:37:27.081Z,50.866776
2023-02-04T12:38:27.068Z,50.866734
2023-02-04T12:39:27.055Z,50.866825
2023-02-04T12:40:28.061Z,50.866692
2023-02-04T12:41:27.059Z,50.866661
2023-02-04T12:42:27.050Z,50.866722
2023-02-04T12:43:28.414Z,50.866661
2023-02-04T12:44:28.024Z,50.866783